sensor_id;sensor_type;location;lat;lon;timestamp;pressure;altitude;pressure_sealevel;temperature;humidity
64078;BME280;51039;49.696;10.808;2022-12-18T00:01:24;99697.88;;;-12.63;84.79
64078;BME280;51039;49.696;10.808;2022-12-18T00:03:51;99694.66;;;-12.75;84.46
64078;BME280;51039;49.696;10.808;2022-12-18T00:06:18;99694.66;;;-12.75;84.60
64078;BME280;51039;49.696;10.808;2022-12-18T00:08:44;99694.44;;;-12.62;84.88
64078;BME280;51039;49.696;10.808;2022-12-18T00:11:11;99685.03;;;-12.59;84.65
64078;BME280;51039;49.696;10.808;2022-12-18T00:13:38;99687.72;;;-12.67;84.39
64078;BME280;51039;49.696;10.808;2022-12-18T00:16:04;99686.22;;;-12.78;84.47
64078;BME280;51039;49.696;10.808;2022-12-18T00:18:32;99690.03;;;-13.07;84.65
64078;BME280;51039;49.696;10.808;2022-12-18T00:20:58;99688.53;;;-13.22;85.57
64078;BME280;51039;49.696;10.808;2022-12-18T00:23:25;99688.50;;;-13.19;85.97
64078;BME280;51039;49.696;10.808;2022-12-18T00:25:50;99694.53;;;-13.25;85.62
64078;BME280;51039;49.696;10.808;2022-12-18T00:28:15;99694.59;;;-13.28;85.71
64078;BME280;51039;49.696;10.808;2022-12-18T00:30:41;99687.84;;;-13.30;85.92
64078;BME280;51039;49.696;10.808;2022-12-18T00:33:06;99684.31;;;-13.23;86.23
64078;BME280;51039;49.696;10.808;2022-12-18T00:35:31;99682.44;;;-13.10;85.97
64078;BME280;51039;49.696;10.808;2022-12-18T00:37:57;99686.66;;;-13.09;85.61
64078;BME280;51039;49.696;10.808;2022-12-18T00:40:22;99689.19;;;-13.08;85.09
64078;BME280;51039;49.696;10.808;2022-12-18T00:42:47;99685.00;;;-13.10;84.87
64078;BME280;51039;49.696;10.808;2022-12-18T00:45:29;99684.19;;;-13.14;84.89
64078;BME280;51039;49.696;10.808;2022-12-18T00:47:56;99679.09;;;-13.12;85.00
64078;BME280;51039;49.696;10.808;2022-12-18T00:50:22;99672.19;;;-13.07;84.85
64078;BME280;51039;49.696;10.808;2022-12-18T00:52:48;99675.63;;;-13.10;84.79
64078;BME280;51039;49.696;10.808;2022-12-18T00:55:14;99684.31;;;-13.23;84.81
64078;BME280;51039;49.696;10.808;2022-12-18T00:57:40;99680.97;;;-13.27;84.62
64078;BME280;51039;49.696;10.808;2022-12-18T01:00:06;99689.63;;;-13.35;84.95
64078;BME280;51039;49.696;10.808;2022-12-18T01:02:34;99693.84;;;-13.33;84.75
64078;BME280;51039;49.696;10.808;2022-12-18T01:04:59;99698.94;;;-13.33;83.76
64078;BME280;51039;49.696;10.808;2022-12-18T01:07:25;99713.28;;;-13.27;83.79
64078;BME280;51039;49.696;10.808;2022-12-18T01:09:50;99712.34;;;-13.20;83.42
64078;BME280;51039;49.696;10.808;2022-12-18T01:12:15;99719.88;;;-13.12;83.75
64078;BME280;51039;49.696;10.808;2022-12-18T01:14:41;99718.78;;;-12.97;84.19
64078;BME280;51039;49.696;10.808;2022-12-18T01:17:06;99710.09;;;-12.82;85.06
64078;BME280;51039;49.696;10.808;2022-12-18T01:19:32;99719.34;;;-12.75;85.32
64078;BME280;51039;49.696;10.808;2022-12-18T01:21:57;99713.22;;;-12.65;86.72
64078;BME280;51039;49.696;10.808;2022-12-18T01:24:23;99705.31;;;-12.50;88.19
64078;BME280;51039;49.696;10.808;2022-12-18T01:26:48;99711.22;;;-12.46;89.94
64078;BME280;51039;49.696;10.808;2022-12-18T01:29:14;99704.47;;;-12.50;91.17
64078;BME280;51039;49.696;10.808;2022-12-18T01:31:39;99715.50;;;-12.48;92.17
64078;BME280;51039;49.696;10.808;2022-12-18T01:34:05;99733.28;;;-12.43;92.69
64078;BME280;51039;49.696;10.808;2022-12-18T01:36:31;99734.06;;;-12.38;92.93
64078;BME280;51039;49.696;10.808;2022-12-18T01:38:59;99734.06;;;-12.38;92.51
64078;BME280;51039;49.696;10.808;2022-12-18T01:41:27;99746.84;;;-12.40;92.20
64078;BME280;51039;49.696;10.808;2022-12-18T01:47:35;99747.78;;;-12.46;91.33
64078;BME280;51039;49.696;10.808;2022-12-18T01:50:11;99738.47;;;-12.48;89.19
64078;BME280;51039;49.696;10.808;2022-12-18T01:52:42;99737.78;;;-12.58;87.04
64078;BME280;51039;49.696;10.808;2022-12-18T01:55:11;99733.53;;;-12.60;85.77
64078;BME280;51039;49.696;10.808;2022-12-18T01:57:39;99740.44;;;-12.66;84.76
64078;BME280;51039;49.696;10.808;2022-12-18T02:00:16;99734.44;;;-12.63;85.02
64078;BME280;51039;49.696;10.808;2022-12-18T02:02:44;99736.19;;;-12.67;85.86
64078;BME280;51039;49.696;10.808;2022-12-18T02:05:11;99744.66;;;-12.63;84.91
64078;BME280;51039;49.696;10.808;2022-12-18T02:07:42;99737.91;;;-12.67;84.21
64078;BME280;51039;49.696;10.808;2022-12-18T02:10:13;99737.94;;;-12.69;84.06
64078;BME280;51039;49.696;10.808;2022-12-18T02:16:04;99738.88;;;-12.74;83.53
64078;BME280;51039;49.696;10.808;2022-12-18T02:18:40;99725.47;;;-12.87;82.83
64078;BME280;51039;49.696;10.808;2022-12-18T02:26:34;99723.75;;;-12.85;83.04
64078;BME280;51039;49.696;10.808;2022-12-18T02:29:10;99732.22;;;-12.83;83.08
64078;BME280;51039;49.696;10.808;2022-12-18T02:31:52;99736.50;;;-12.85;86.43
64078;BME280;51039;49.696;10.808;2022-12-18T02:34:22;99739.88;;;-12.83;87.35
64078;BME280;51039;49.696;10.808;2022-12-18T02:36:54;99742.34;;;-12.78;87.29
64078;BME280;51039;49.696;10.808;2022-12-18T02:39:21;99744.97;;;-12.85;86.96
64078;BME280;51039;49.696;10.808;2022-12-18T02:41:48;99744.06;;;-12.80;86.67
64078;BME280;51039;49.696;10.808;2022-12-18T02:44:14;99738.16;;;-12.84;85.99
64078;BME280;51039;49.696;10.808;2022-12-18T02:46:40;99744.97;;;-12.85;85.67
64078;BME280;51039;49.696;10.808;2022-12-18T02:49:15;99735.72;;;-12.90;84.99
64078;BME280;51039;49.696;10.808;2022-12-18T02:52:29;99736.63;;;-12.94;84.65
64078;BME280;51039;49.696;10.808;2022-12-18T02:57:45;99758.22;;;-13.20;88.47
64078;BME280;51039;49.696;10.808;2022-12-18T03:00:17;99747.97;;;-13.17;89.63
64078;BME280;51039;49.696;10.808;2022-12-18T03:02:46;99736.34;;;-13.33;90.27
64078;BME280;51039;49.696;10.808;2022-12-18T03:05:17;99727.72;;;-13.28;91.03
64078;BME280;51039;49.696;10.808;2022-12-18T03:07:53;99728.50;;;-13.23;90.75
64078;BME280;51039;49.696;10.808;2022-12-18T03:10:25;99733.72;;;-13.30;89.48
64078;BME280;51039;49.696;10.808;2022-12-18T03:13:17;99748.25;;;-13.35;89.25
64078;BME280;51039;49.696;10.808;2022-12-18T03:15:47;99740.59;;;-13.35;89.61
64078;BME280;51039;49.696;10.808;2022-12-18T03:18:17;99745.56;;;-13.28;89.54
64078;BME280;51039;49.696;10.808;2022-12-18T03:21:05;99752.34;;;-13.28;88.95
64078;BME280;51039;49.696;10.808;2022-12-18T03:23:34;99753.16;;;-13.23;88.51
64078;BME280;51039;49.696;10.808;2022-12-18T03:26:05;99761.53;;;-13.13;87.92
64078;BME280;51039;49.696;10.808;2022-12-18T03:28:35;99764.03;;;-13.10;87.26
64078;BME280;51039;49.696;10.808;2022-12-18T03:31:04;99765.78;;;-13.12;86.65
64078;BME280;51039;49.696;10.808;2022-12-18T03:33:38;99769.16;;;-13.10;86.24
64078;BME280;51039;49.696;10.808;2022-12-18T03:36:07;99779.19;;;-12.99;85.96
64078;BME280;51039;49.696;10.808;2022-12-18T03:38:32;99776.69;;;-13.02;85.66
64078;BME280;51039;49.696;10.808;2022-12-18T03:41:05;99779.97;;;-13.61;86.21
64078;BME280;51039;49.696;10.808;2022-12-18T03:46:28;99777.06;;;-13.30;86.13
64078;BME280;51039;49.696;10.808;2022-12-18T03:49:02;99760.94;;;-13.31;85.59
64078;BME280;51039;49.696;10.808;2022-12-18T03:51:39;99778.63;;;-13.21;85.50
64078;BME280;51039;49.696;10.808;2022-12-18T03:54:10;99783.56;;;-13.09;85.57
64078;BME280;51039;49.696;10.808;2022-12-18T03:56:39;99773.34;;;-13.08;85.81
64078;BME280;51039;49.696;10.808;2022-12-18T03:59:09;99770.81;;;-13.08;86.15
64078;BME280;51039;49.696;10.808;2022-12-18T04:01:38;99782.63;;;-13.02;86.93
64078;BME280;51039;49.696;10.808;2022-12-18T04:04:07;99783.38;;;-12.95;87.15
64078;BME280;51039;49.696;10.808;2022-12-18T04:06:35;99779.09;;;-12.93;87.11
64078;BME280;51039;49.696;10.808;2022-12-18T04:09:02;99782.41;;;-12.85;87.26
64078;BME280;51039;49.696;10.808;2022-12-18T04:11:27;99778.06;;;-12.80;87.37
64078;BME280;51039;49.696;10.808;2022-12-18T04:13:56;99782.25;;;-12.74;87.80
64078;BME280;51039;49.696;10.808;2022-12-18T04:16:23;99783.00;;;-12.68;87.76
64078;BME280;51039;49.696;10.808;2022-12-18T04:18:52;99784.66;;;-12.63;87.84
64078;BME280;51039;49.696;10.808;2022-12-18T04:21:17;99782.03;;;-12.59;88.29
64078;BME280;51039;49.696;10.808;2022-12-18T04:23:43;99793.84;;;-12.53;88.95
64078;BME280;51039;49.696;10.808;2022-12-18T04:26:08;99795.38;;;-12.41;89.34
64078;BME280;51039;49.696;10.808;2022-12-18T04:28:34;99784.97;;;-12.29;89.72
64078;BME280;51039;49.696;10.808;2022-12-18T04:30:59;99785.72;;;-12.24;89.54
64078;BME280;51039;49.696;10.808;2022-12-18T04:33:24;99785.59;;;-12.16;90.04
64078;BME280;51039;49.696;10.808;2022-12-18T04:35:50;99787.91;;;-12.01;90.68
64078;BME280;51039;49.696;10.808;2022-12-18T04:38:15;99789.50;;;-11.95;90.96
64078;BME280;51039;49.696;10.808;2022-12-18T04:40:40;99795.50;;;-11.95;91.38
64078;BME280;51039;49.696;10.808;2022-12-18T04:43:06;99789.50;;;-11.95;91.84
64078;BME280;51039;49.696;10.808;2022-12-18T04:45:31;99779.28;;;-11.95;92.18
64078;BME280;51039;49.696;10.808;2022-12-18T04:47:57;99778.41;;;-11.93;92.64
64078;BME280;51039;49.696;10.808;2022-12-18T04:50:23;99769.63;;;-11.79;92.96
64078;BME280;51039;49.696;10.808;2022-12-18T04:52:49;99775.41;;;-11.70;93.16
64078;BME280;51039;49.696;10.808;2022-12-18T04:55:14;99781.19;;;-11.60;93.45
64078;BME280;51039;49.696;10.808;2022-12-18T04:57:39;99782.06;;;-11.61;93.58
64078;BME280;51039;49.696;10.808;2022-12-18T05:00:05;99785.41;;;-11.57;93.67
64078;BME280;51039;49.696;10.808;2022-12-18T05:02:31;99783.75;;;-11.60;93.68
64078;BME280;51039;49.696;10.808;2022-12-18T05:04:57;99775.19;;;-11.57;94.22
64078;BME280;51039;49.696;10.808;2022-12-18T05:07:22;99774.34;;;-11.58;94.48
64078;BME280;51039;49.696;10.808;2022-12-18T05:09:47;99783.50;;;-11.48;94.50
64078;BME280;51039;49.696;10.808;2022-12-18T05:12:13;99781.75;;;-11.44;94.35
64078;BME280;51039;49.696;10.808;2022-12-18T05:14:38;99784.19;;;-11.39;94.59
64078;BME280;51039;49.696;10.808;2022-12-18T05:17:04;99795.16;;;-11.33;94.34
64078;BME280;51039;49.696;10.808;2022-12-18T05:19:30;99795.94;;;-11.29;94.47
64078;BME280;51039;49.696;10.808;2022-12-18T05:21:55;99788.91;;;-11.18;94.48
64078;BME280;51039;49.696;10.808;2022-12-18T05:24:20;99794.78;;;-11.14;94.25
64078;BME280;51039;49.696;10.808;2022-12-18T05:26:46;99798.09;;;-11.09;94.25
64078;BME280;51039;49.696;10.808;2022-12-18T05:29:11;99804.00;;;-11.06;94.20
64078;BME280;51039;49.696;10.808;2022-12-18T05:31:37;99795.38;;;-11.01;94.25
64078;BME280;51039;49.696;10.808;2022-12-18T05:34:03;99792.63;;;-10.92;94.37
64078;BME280;51039;49.696;10.808;2022-12-18T05:36:29;99799.31;;;-10.85;94.09
64078;BME280;51039;49.696;10.808;2022-12-18T05:38:54;99794.84;;;-10.77;94.38
64078;BME280;51039;49.696;10.808;2022-12-18T05:41:19;99793.00;;;-10.70;94.60
64078;BME280;51039;49.696;10.808;2022-12-18T05:43:45;99795.28;;;-10.58;94.52
64078;BME280;51039;49.696;10.808;2022-12-18T05:46:12;99801.06;;;-10.48;94.32
64078;BME280;51039;49.696;10.808;2022-12-18T05:48:39;99798.47;;;-10.47;94.42
64078;BME280;51039;49.696;10.808;2022-12-18T05:51:05;99796.56;;;-10.38;94.62
64078;BME280;51039;49.696;10.808;2022-12-18T05:53:49;99796.41;;;-10.32;94.51
64078;BME280;51039;49.696;10.808;2022-12-18T05:56:15;99795.53;;;-10.31;94.64
64078;BME280;51039;49.696;10.808;2022-12-18T05:58:42;99781.03;;;-10.32;94.72
64078;BME280;51039;49.696;10.808;2022-12-18T06:01:09;99792.84;;;-10.28;94.54
64078;BME280;51039;49.696;10.808;2022-12-18T06:03:37;99796.16;;;-10.23;93.92
64078;BME280;51039;49.696;10.808;2022-12-18T06:06:02;99805.81;;;-10.33;93.68
64078;BME280;51039;49.696;10.808;2022-12-18T06:08:28;99809.06;;;-10.28;93.70
64078;BME280;51039;49.696;10.808;2022-12-18T06:10:53;99817.50;;;-10.22;93.48
64078;BME280;51039;49.696;10.808;2022-12-18T06:13:19;99810.59;;;-10.20;93.44
64078;BME280;51039;49.696;10.808;2022-12-18T06:15:45;99806.31;;;-10.20;93.12
64078;BME280;51039;49.696;10.808;2022-12-18T06:18:10;99814.84;;;-10.18;93.40
64078;BME280;51039;49.696;10.808;2022-12-18T06:20:35;99814.91;;;-10.21;93.50
64078;BME280;51039;49.696;10.808;2022-12-18T06:23:02;99812.38;;;-10.22;93.44
64078;BME280;51039;49.696;10.808;2022-12-18T06:25:27;99802.78;;;-10.14;93.44
64078;BME280;51039;49.696;10.808;2022-12-18T06:27:53;99806.09;;;-10.11;93.52
64078;BME280;51039;49.696;10.808;2022-12-18T06:30:19;99809.56;;;-10.12;93.52
64078;BME280;51039;49.696;10.808;2022-12-18T06:32:44;99805.88;;;-10.01;93.50
64078;BME280;51039;49.696;10.808;2022-12-18T06:35:10;99816.84;;;-9.95;93.42
64078;BME280;51039;49.696;10.808;2022-12-18T06:37:35;99812.44;;;-9.91;93.25
64078;BME280;51039;49.696;10.808;2022-12-18T06:40:00;99829.47;;;-9.87;93.54
64078;BME280;51039;49.696;10.808;2022-12-18T06:42:26;99826.72;;;-9.79;93.37
64078;BME280;51039;49.696;10.808;2022-12-18T06:44:51;99832.78;;;-9.83;93.41
64078;BME280;51039;49.696;10.808;2022-12-18T06:47:17;99832.75;;;-9.82;93.32
64078;BME280;51039;49.696;10.808;2022-12-18T06:49:42;99838.63;;;-9.78;93.19
64078;BME280;51039;49.696;10.808;2022-12-18T06:52:08;99838.63;;;-9.78;93.04
64078;BME280;51039;49.696;10.808;2022-12-18T06:54:33;99848.81;;;-9.75;93.20
64078;BME280;51039;49.696;10.808;2022-12-18T06:56:58;99846.97;;;-9.70;93.32
64078;BME280;51039;49.696;10.808;2022-12-18T06:59:24;99840.00;;;-9.65;93.35
64078;BME280;51039;49.696;10.808;2022-12-18T07:01:49;99842.38;;;-9.57;93.30
64078;BME280;51039;49.696;10.808;2022-12-18T07:04:14;99825.22;;;-9.55;93.36
64078;BME280;51039;49.696;10.808;2022-12-18T07:06:40;99821.78;;;-9.54;93.22
64078;BME280;51039;49.696;10.808;2022-12-18T07:09:05;99820.78;;;-9.49;93.47
64078;BME280;51039;49.696;10.808;2022-12-18T07:11:32;99816.31;;;-9.42;93.20
64078;BME280;51039;49.696;10.808;2022-12-18T07:13:58;99816.19;;;-9.37;93.15
64078;BME280;51039;49.696;10.808;2022-12-18T07:16:23;99805.06;;;-9.36;93.15
64078;BME280;51039;49.696;10.808;2022-12-18T07:18:50;99815.31;;;-9.36;93.56
64078;BME280;51039;49.696;10.808;2022-12-18T07:21:19;99816.91;;;-9.32;93.81
64078;BME280;51039;49.696;10.808;2022-12-18T07:23:45;99820.06;;;-9.22;93.78
64078;BME280;51039;49.696;10.808;2022-12-18T07:26:13;99823.31;;;-9.16;93.69
64078;BME280;51039;49.696;10.808;2022-12-18T07:28:40;99823.09;;;-9.08;93.80
64078;BME280;51039;49.696;10.808;2022-12-18T07:31:07;99828.09;;;-9.03;93.75
64078;BME280;51039;49.696;10.808;2022-12-18T07:33:37;99826.34;;;-9.01;93.77
64078;BME280;51039;49.696;10.808;2022-12-18T07:36:04;99829.47;;;-8.92;93.97
64078;BME280;51039;49.696;10.808;2022-12-18T07:38:31;99834.16;;;-8.76;93.97
64078;BME280;51039;49.696;10.808;2022-12-18T07:41:04;99839.09;;;-8.69;94.14
64078;BME280;51039;49.696;10.808;2022-12-18T07:43:34;99842.25;;;-8.60;94.10
64078;BME280;51039;49.696;10.808;2022-12-18T07:46:00;99842.66;;;-8.44;95.00
64078;BME280;51039;49.696;10.808;2022-12-18T07:48:27;99857.19;;;-8.43;95.02
64078;BME280;51039;49.696;10.808;2022-12-18T07:50:53;99853.78;;;-8.44;94.64
64078;BME280;51039;49.696;10.808;2022-12-18T07:53:18;99865.03;;;-8.48;94.05
64078;BME280;51039;49.696;10.808;2022-12-18T07:55:44;99865.38;;;-8.60;93.37
64078;BME280;51039;49.696;10.808;2022-12-18T07:58:09;99867.34;;;-8.69;93.13
64078;BME280;51039;49.696;10.808;2022-12-18T08:00:34;99856.75;;;-8.58;93.10
64078;BME280;51039;49.696;10.808;2022-12-18T08:03:00;99863.94;;;-8.69;92.65
64078;BME280;51039;49.696;10.808;2022-12-18T08:05:26;99864.81;;;-8.70;92.89
64078;BME280;51039;49.696;10.808;2022-12-18T08:07:53;99864.69;;;-8.65;92.86
64078;BME280;51039;49.696;10.808;2022-12-18T08:10:19;99864.59;;;-8.62;92.66
64078;BME280;51039;49.696;10.808;2022-12-18T08:12:44;99867.88;;;-8.57;92.26
64078;BME280;51039;49.696;10.808;2022-12-18T08:15:10;99868.66;;;-8.55;92.15
64078;BME280;51039;49.696;10.808;2022-12-18T08:17:36;99872.28;;;-8.62;92.27
64078;BME280;51039;49.696;10.808;2022-12-18T08:20:01;99875.50;;;-8.54;92.49
64078;BME280;51039;49.696;10.808;2022-12-18T08:22:27;99866.88;;;-8.53;92.34
64078;BME280;51039;49.696;10.808;2022-12-18T08:24:52;99864.94;;;-8.45;92.35
64078;BME280;51039;49.696;10.808;2022-12-18T08:27:17;99872.44;;;-8.39;92.16
64078;BME280;51039;49.696;10.808;2022-12-18T08:29:43;99866.41;;;-8.38;92.12
64078;BME280;51039;49.696;10.808;2022-12-18T08:32:08;99861.94;;;-8.31;92.05
64078;BME280;51039;49.696;10.808;2022-12-18T08:34:34;99861.59;;;-8.20;91.77
64078;BME280;51039;49.696;10.808;2022-12-18T08:37:00;99870.28;;;-8.24;91.89
64078;BME280;51039;49.696;10.808;2022-12-18T08:39:25;99875.34;;;-8.21;92.02
64078;BME280;51039;49.696;10.808;2022-12-18T08:41:51;99874.94;;;-8.09;92.29
64078;BME280;51039;49.696;10.808;2022-12-18T08:44:34;99875.50;;;-7.99;91.95
64078;BME280;51039;49.696;10.808;2022-12-18T08:47:03;99870.22;;;-7.95;91.42
64078;BME280;51039;49.696;10.808;2022-12-18T08:49:29;99864.22;;;-7.95;91.71
64078;BME280;51039;49.696;10.808;2022-12-18T08:51:55;99865.91;;;-7.94;91.76
64078;BME280;51039;49.696;10.808;2022-12-18T08:54:22;99867.66;;;-7.95;91.48
64078;BME280;51039;49.696;10.808;2022-12-18T08:56:47;99858.94;;;-7.91;91.53
64078;BME280;51039;49.696;10.808;2022-12-18T08:59:14;99857.22;;;-7.90;91.59
64078;BME280;51039;49.696;10.808;2022-12-18T09:01:40;99851.97;;;-7.87;91.61
64078;BME280;51039;49.696;10.808;2022-12-18T09:04:05;99852.69;;;-7.83;91.68
64078;BME280;51039;49.696;10.808;2022-12-18T09:06:31;99850.13;;;-7.83;91.36
64078;BME280;51039;49.696;10.808;2022-12-18T09:08:57;99857.72;;;-7.79;91.53
64078;BME280;51039;49.696;10.808;2022-12-18T09:11:25;99852.66;;;-7.82;91.38
64078;BME280;51039;49.696;10.808;2022-12-18T09:13:53;99857.91;;;-7.85;91.61
64078;BME280;51039;49.696;10.808;2022-12-18T09:16:19;99855.94;;;-7.77;91.55
64078;BME280;51039;49.696;10.808;2022-12-18T09:18:45;99851.53;;;-7.73;91.37
64078;BME280;51039;49.696;10.808;2022-12-18T09:21:15;99853.22;;;-7.74;91.26
64078;BME280;51039;49.696;10.808;2022-12-18T09:23:51;99857.16;;;-7.62;91.08
64078;BME280;51039;49.696;10.808;2022-12-18T09:26:17;99852.59;;;-7.54;91.24
64078;BME280;51039;49.696;10.808;2022-12-18T09:28:42;99838.81;;;-7.53;91.13
64078;BME280;51039;49.696;10.808;2022-12-18T09:31:08;99843.09;;;-7.52;91.16
64078;BME280;51039;49.696;10.808;2022-12-18T09:33:35;99840.41;;;-7.48;91.24
64078;BME280;51039;49.696;10.808;2022-12-18T09:36:02;99836.72;;;-7.41;91.29
64078;BME280;51039;49.696;10.808;2022-12-18T09:38:30;99834.78;;;-7.35;91.48
64078;BME280;51039;49.696;10.808;2022-12-18T09:41:06;99839.28;;;-7.16;91.23
64078;BME280;51039;49.696;10.808;2022-12-18T09:43:43;99834.91;;;-7.14;91.37
64078;BME280;51039;49.696;10.808;2022-12-18T09:46:30;99833.09;;;-6.87;92.50
64078;BME280;51039;49.696;10.808;2022-12-18T09:49:00;99831.72;;;-6.74;93.31
64078;BME280;51039;49.696;10.808;2022-12-18T09:51:36;99831.59;;;-6.93;91.67
64078;BME280;51039;49.696;10.808;2022-12-18T09:54:07;99830.06;;;-6.75;91.66
64078;BME280;51039;49.696;10.808;2022-12-18T09:56:40;99831.72;;;-6.74;91.35
64078;BME280;51039;49.696;10.808;2022-12-18T09:59:09;99827.38;;;-6.49;91.16
64078;BME280;51039;49.696;10.808;2022-12-18T10:01:44;99833.75;;;-6.36;91.70
64078;BME280;51039;49.696;10.808;2022-12-18T10:04:09;99829.31;;;-6.10;91.76
64078;BME280;51039;49.696;10.808;2022-12-18T10:06:37;99826.47;;;-5.84;92.39
64078;BME280;51039;49.696;10.808;2022-12-18T10:09:11;99816.91;;;-5.60;91.37
64078;BME280;51039;49.696;10.808;2022-12-18T10:16:55;99790.09;;;-5.18;91.05
64078;BME280;51039;49.696;10.808;2022-12-18T10:22:19;99796.91;;;-4.96;90.62
64078;BME280;51039;49.696;10.808;2022-12-18T10:25:26;99807.44;;;-5.01;90.10
64078;BME280;51039;49.696;10.808;2022-12-18T10:27:51;99804.38;;;-4.90;90.43
64078;BME280;51039;49.696;10.808;2022-12-18T10:30:21;99793.06;;;-4.87;90.28
64078;BME280;51039;49.696;10.808;2022-12-18T10:32:49;99798.09;;;-4.65;90.31
64078;BME280;51039;49.696;10.808;2022-12-18T10:35:21;99794.66;;;-4.47;90.05
64078;BME280;51039;49.696;10.808;2022-12-18T10:40:59;99800.19;;;-4.74;89.96
64078;BME280;51039;49.696;10.808;2022-12-18T10:43:25;99812.34;;;-4.76;89.69
64078;BME280;51039;49.696;10.808;2022-12-18T10:48:34;99810.66;;;-4.39;89.47
64078;BME280;51039;49.696;10.808;2022-12-18T10:51:04;99804.81;;;-4.25;88.28
64078;BME280;51039;49.696;10.808;2022-12-18T10:53:31;99802.94;;;-4.21;88.34
64078;BME280;51039;49.696;10.808;2022-12-18T10:55:59;99816.03;;;-4.07;88.42
64078;BME280;51039;49.696;10.808;2022-12-18T10:58:27;99816.41;;;-4.15;87.70
64078;BME280;51039;49.696;10.808;2022-12-18T11:01:05;99809.34;;;-4.11;87.54
64078;BME280;51039;49.696;10.808;2022-12-18T11:06:12;99803.72;;;-3.16;84.70
64078;BME280;51039;49.696;10.808;2022-12-18T11:08:43;99803.25;;;-3.40;84.22
64078;BME280;51039;49.696;10.808;2022-12-18T11:11:21;99801.13;;;-3.49;83.90
64078;BME280;51039;49.696;10.808;2022-12-18T11:14:35;99795.31;;;-3.37;84.21
64078;BME280;51039;49.696;10.808;2022-12-18T11:16:44;99784.53;;;-2.96;82.83
64078;BME280;51039;49.696;10.808;2022-12-18T11:22:20;99784.13;;;-2.25;80.61
64078;BME280;51039;49.696;10.808;2022-12-18T11:27:19;99778.28;;;-1.53;78.25
64078;BME280;51039;49.696;10.808;2022-12-18T11:29:45;99780.34;;;-1.44;77.32
64078;BME280;51039;49.696;10.808;2022-12-18T11:34:57;99765.47;;;-1.71;77.34
64078;BME280;51039;49.696;10.808;2022-12-18T11:37:27;99764.75;;;-1.89;78.12
64078;BME280;51039;49.696;10.808;2022-12-18T11:39:57;99757.00;;;-1.60;78.33
64078;BME280;51039;49.696;10.808;2022-12-18T11:42:30;99752.69;;;-1.60;76.80
64078;BME280;51039;49.696;10.808;2022-12-18T11:50:16;99750.91;;;-2.50;79.74
64078;BME280;51039;49.696;10.808;2022-12-18T11:52:43;99745.38;;;-2.44;79.33
64078;BME280;51039;49.696;10.808;2022-12-18T11:55:18;99760.97;;;-2.60;79.01
64078;BME280;51039;49.696;10.808;2022-12-18T12:09:52;99746.03;;;-2.56;78.40
64078;BME280;51039;49.696;10.808;2022-12-18T12:21:07;99721.47;;;-2.65;77.90
64078;BME280;51039;49.696;10.808;2022-12-18T12:37:11;99721.56;;;-2.20;77.26
64078;BME280;51039;49.696;10.808;2022-12-18T12:39:47;99718.72;;;-2.01;76.18
64078;BME280;51039;49.696;10.808;2022-12-18T12:45:15;99715.44;;;-2.19;76.47
64078;BME280;51039;49.696;10.808;2022-12-18T12:47:51;99708.78;;;-2.09;76.34
64078;BME280;51039;49.696;10.808;2022-12-18T12:50:18;99709.59;;;-1.92;76.22
64078;BME280;51039;49.696;10.808;2022-12-18T12:52:47;99708.78;;;-2.09;76.13
64078;BME280;51039;49.696;10.808;2022-12-18T12:55:18;99703.72;;;-1.96;75.89
64078;BME280;51039;49.696;10.808;2022-12-18T12:58:10;99703.59;;;-2.09;75.72
64078;BME280;51039;49.696;10.808;2022-12-18T13:00:48;99710.88;;;-1.85;75.86
64078;BME280;51039;49.696;10.808;2022-12-18T13:09:17;99690.59;;;-2.23;76.96
64078;BME280;51039;49.696;10.808;2022-12-18T13:11:46;99696.75;;;-2.40;77.09
64078;BME280;51039;49.696;10.808;2022-12-18T13:14:35;99688.88;;;-2.39;76.83
64078;BME280;51039;49.696;10.808;2022-12-18T13:19:49;99685.13;;;-2.49;77.50
64078;BME280;51039;49.696;10.808;2022-12-18T13:22:20;99686.97;;;-2.51;78.03
64078;BME280;51039;49.696;10.808;2022-12-18T13:24:59;99690.81;;;-2.42;77.28
64078;BME280;51039;49.696;10.808;2022-12-18T13:40:58;99692.13;;;-2.65;78.83
64078;BME280;51039;49.696;10.808;2022-12-18T13:51:42;99664.44;;;-2.81;79.48
64078;BME280;51039;49.696;10.808;2022-12-18T13:54:53;99662.25;;;-2.72;79.27
64078;BME280;51039;49.696;10.808;2022-12-18T13:57:02;99655.06;;;-2.67;79.40
64078;BME280;51039;49.696;10.808;2022-12-18T14:02:13;99651.41;;;-2.95;80.36
64078;BME280;51039;49.696;10.808;2022-12-18T14:04:40;99658.06;;;-2.91;80.10
64078;BME280;51039;49.696;10.808;2022-12-18T14:07:06;99661.59;;;-2.92;80.23
64078;BME280;51039;49.696;10.808;2022-12-18T14:09:42;99653.75;;;-2.90;80.30
64078;BME280;51039;49.696;10.808;2022-12-18T14:12:18;99655.47;;;-2.91;80.12
64078;BME280;51039;49.696;10.808;2022-12-18T14:17:55;99672.31;;;-2.98;80.90
64078;BME280;51039;49.696;10.808;2022-12-18T14:20:27;99673.22;;;-2.99;81.20
64078;BME280;51039;49.696;10.808;2022-12-18T14:22:55;99679.84;;;-2.93;80.91
64078;BME280;51039;49.696;10.808;2022-12-18T14:25:22;99679.75;;;-2.92;80.75
64078;BME280;51039;49.696;10.808;2022-12-18T14:30:26;99686.00;;;-3.12;81.63
64078;BME280;51039;49.696;10.808;2022-12-18T14:33:10;99689.63;;;-3.14;81.89
64078;BME280;51039;49.696;10.808;2022-12-18T14:36:03;99688.78;;;-3.15;82.09
64078;BME280;51039;49.696;10.808;2022-12-18T14:38:30;99692.34;;;-3.18;81.91
64078;BME280;51039;49.696;10.808;2022-12-18T14:40:57;99690.59;;;-3.33;82.49
64078;BME280;51039;49.696;10.808;2022-12-18T14:43:29;99689.00;;;-3.36;82.74
64078;BME280;51039;49.696;10.808;2022-12-18T14:45:56;99687.56;;;-3.41;83.10
64078;BME280;51039;49.696;10.808;2022-12-18T14:48:56;99686.41;;;-3.36;82.59
64078;BME280;51039;49.696;10.808;2022-12-18T14:51:15;99677.41;;;-3.44;83.10
64078;BME280;51039;49.696;10.808;2022-12-18T14:53:47;99679.47;;;-3.51;83.08
64078;BME280;51039;49.696;10.808;2022-12-18T14:56:18;99672.09;;;-3.59;83.85
64078;BME280;51039;49.696;10.808;2022-12-18T14:58:50;99679.94;;;-3.60;83.72